createdAt,value
2019-05-19T00:06:35.870Z,63.13
2019-05-19T00:14:57.286Z,64.92
2019-05-19T00:23:18.672Z,65.03
2019-05-19T00:31:40.319Z,64.77
2019-05-19T00:40:01.746Z,63.83
2019-05-19T00:48:23.009Z,65.17
2019-05-19T00:56:44.377Z,66.72
2019-05-19T01:05:06.884Z,65.72
2019-05-19T01:13:28.288Z,64.97
2019-05-19T01:21:49.983Z,63.70
2019-05-19T01:30:12.473Z,64.37
2019-05-19T01:38:33.841Z,63.52
2019-05-19T01:46:55.300Z,65.78
2019-05-19T01:55:16.538Z,64.65
2019-05-19T02:03:37.987Z,64.12
2019-05-19T02:11:59.393Z,62.80
2019-05-19T02:20:33.511Z,66.20
2019-05-19T02:28:42.190Z,63.80
2019-05-19T02:37:03.580Z,66.77
2019-05-19T02:45:25.077Z,63.87
2019-05-19T02:53:46.417Z,67.27
2019-05-19T03:02:12.056Z,64.45
2019-05-19T03:10:33.339Z,68.72
2019-05-19T03:18:54.418Z,63.63
2019-05-19T03:27:15.742Z,66.40
2019-05-19T03:35:36.918Z,64.37
2019-05-19T03:43:58.184Z,63.45
2019-05-19T03:52:19.558Z,64.97
2019-05-19T04:00:40.995Z,66.30
2019-05-19T04:09:03.183Z,66.95
2019-05-19T04:17:24.508Z,62.93
2019-05-19T04:25:45.861Z,67.95
2019-05-19T04:34:07.248Z,67.67
2019-05-19T04:42:28.471Z,70.85
2019-05-19T04:50:49.863Z,65.28
2019-05-19T04:59:11.106Z,66.95
2019-05-19T05:07:32.482Z,68.30
2019-05-19T05:15:53.545Z,65.45
2019-05-19T05:24:14.738Z,69.12
2019-05-19T05:32:35.991Z,68.55
2019-05-19T05:40:57.256Z,68.17
2019-05-19T05:49:18.160Z,69.32
2019-05-19T05:57:39.591Z,71.17
2019-05-19T06:06:00.736Z,70.52
2019-05-19T06:14:21.904Z,69.65
2019-05-19T06:22:57.198Z,71.80
2019-05-19T06:31:04.195Z,71.50
2019-05-19T06:39:25.624Z,72.10
2019-05-19T06:47:47.508Z,71.90
2019-05-19T06:56:09.581Z,66.45
2019-05-19T07:04:30.824Z,68.75
2019-05-19T07:12:53.120Z,74.15
2019-05-19T07:21:14.918Z,71.12
2019-05-19T07:29:35.605Z,71.12
2019-05-19T07:37:56.771Z,73.67
2019-05-19T07:46:18.175Z,68.33
2019-05-19T07:54:39.597Z,68.75
2019-05-19T08:03:01.469Z,65.37
2019-05-19T08:11:24.986Z,61.45
2019-05-19T08:19:46.796Z,60.90
2019-05-19T08:28:09.571Z,60.00
2019-05-19T08:36:30.394Z,60.28
2019-05-19T08:44:51.826Z,62.45
2019-05-19T08:53:13.194Z,62.73
2019-05-19T09:01:35.122Z,63.90
2019-05-19T09:09:56.854Z,62.48
2019-05-19T09:18:20.535Z,63.02
2019-05-19T09:26:42.113Z,64.25
2019-05-19T09:35:05.230Z,68.05
2019-05-19T09:43:26.591Z,72.27
2019-05-19T09:51:47.752Z,71.90
2019-05-19T10:00:10.933Z,73.80
2019-05-19T10:08:36.201Z,77.58
2019-05-19T10:16:57.600Z,80.38
2019-05-19T10:25:23.287Z,78.17
2019-05-19T10:33:40.135Z,82.12
2019-05-19T10:42:01.491Z,81.02
2019-05-19T10:50:22.601Z,83.40
2019-05-19T10:58:43.957Z,90.07
2019-05-19T11:07:04.980Z,121.07
2019-05-19T11:15:26.175Z,109.10
2019-05-19T11:23:47.300Z,118.80
2019-05-19T11:32:08.516Z,126.10
2019-05-19T11:40:30.227Z,127.05
2019-05-19T11:48:51.495Z,124.67
2019-05-19T11:57:13.543Z,124.53
2019-05-19T12:05:34.965Z,117.80
2019-05-19T12:13:56.392Z,109.87
2019-05-19T12:22:17.657Z,225.60
2019-05-19T12:30:39.335Z,101.70
2019-05-19T12:39:02.222Z,92.02
2019-05-19T12:47:22.306Z,114.17
2019-05-19T12:55:43.730Z,81.70
2019-05-19T13:04:05.115Z,82.85
2019-05-19T13:12:26.497Z,78.78
2019-05-19T13:20:47.841Z,78.92
2019-05-19T13:29:09.270Z,80.05
2019-05-19T13:37:30.795Z,77.58
2019-05-19T13:45:52.701Z,77.70
2019-05-19T13:54:14.069Z,79.80
2019-05-19T14:02:35.732Z,77.67
2019-05-19T14:10:57.320Z,75.87
2019-05-19T14:19:18.660Z,75.30
2019-05-19T14:27:40.125Z,74.82
2019-05-19T14:36:01.599Z,73.72
2019-05-19T14:44:22.907Z,75.45
2019-05-19T14:52:44.491Z,76.42
2019-05-19T15:01:06.118Z,74.22
2019-05-19T15:09:27.491Z,81.08
2019-05-19T15:17:48.846Z,73.65
2019-05-19T15:26:10.324Z,73.35
2019-05-19T15:34:31.571Z,75.25
2019-05-19T15:42:52.978Z,74.15
2019-05-19T15:51:29.844Z,72.37
2019-05-19T15:59:37.904Z,76.28
2019-05-19T16:07:59.328Z,75.45
2019-05-19T16:16:20.667Z,77.97
2019-05-19T16:24:41.852Z,79.37
2019-05-19T16:33:03.221Z,80.53
2019-05-19T16:41:24.651Z,78.83
2019-05-19T16:49:45.832Z,76.33
2019-05-19T16:58:21.822Z,76.65
2019-05-19T17:06:28.190Z,77.95
2019-05-19T17:14:49.586Z,72.22
2019-05-19T17:23:10.638Z,74.07
2019-05-19T17:31:32.073Z,71.42
2019-05-19T17:39:53.473Z,72.65
2019-05-19T17:48:26.847Z,71.90
2019-05-19T17:56:36.228Z,71.17
2019-05-19T18:04:57.668Z,71.22
2019-05-19T18:13:18.833Z,71.70
2019-05-19T18:21:40.084Z,73.28
2019-05-19T18:30:01.057Z,69.50
2019-05-19T18:38:22.418Z,70.37
2019-05-19T18:46:43.810Z,71.40
2019-05-19T18:55:05.427Z,70.62
2019-05-19T19:03:26.625Z,67.35
2019-05-19T19:11:48.049Z,66.75
2019-05-19T19:20:09.480Z,67.87
2019-05-19T19:28:30.851Z,64.30
2019-05-19T19:36:52.079Z,63.50
2019-05-19T19:45:13.379Z,62.48
2019-05-19T19:53:34.491Z,62.03
2019-05-19T20:01:55.827Z,61.15
2019-05-19T20:10:17.088Z,60.92
2019-05-19T20:18:38.300Z,60.80
2019-05-19T20:26:59.396Z,60.63
2019-05-19T20:35:20.605Z,60.98
2019-05-19T20:43:42.032Z,60.28
2019-05-19T20:52:03.551Z,59.42
2019-05-19T21:00:24.960Z,62.43
2019-05-19T21:08:46.528Z,59.90
2019-05-19T21:17:08.061Z,59.85
2019-05-19T21:25:29.360Z,60.03
2019-05-19T21:33:50.986Z,59.83
2019-05-19T21:42:12.491Z,60.30
2019-05-19T21:50:33.928Z,60.58
2019-05-19T21:58:55.375Z,59.88
2019-05-19T22:07:21.891Z,59.93
2019-05-19T22:15:43.197Z,61.92
2019-05-19T22:24:04.639Z,59.67
2019-05-19T22:32:26.015Z,61.68
2019-05-19T22:40:47.346Z,59.85
2019-05-19T22:49:08.635Z,60.03
2019-05-19T22:57:29.837Z,60.15
2019-05-19T23:05:51.327Z,60.38
2019-05-19T23:14:12.682Z,60.92
2019-05-19T23:22:34.090Z,60.92
2019-05-19T23:30:55.211Z,59.60
2019-05-19T23:39:16.511Z,60.95
2019-05-19T23:47:37.806Z,59.60
2019-05-19T23:55:58.960Z,59.23
